Tiempo atmosférico en la estación meteorológica de Burgo de Osma, Soria (932 m.)



Fecha
DESCASC
Temp. máxima en grados centígrados (hora)
DESCASC
Temp. mínima en grados centígrados (hora)
DESCASC
Temp. media en grados centígrados
DESCASC
Racha de viento máxima en m/sg (hora)
DESCASC
Velocidad máxima media en intervalos de 10 minutos(hora)
DESCASC
Precipitaciones diarias en mm
DESCASC
Precipitaciones de 00:00 a 06:00 en mm
DESCASC
Precipitaciones de 06:00 a 12:00 en mm
DESCASC
Precipitaciones de 12:00 a 18:00 en mm
DESCASC
Precipitaciones de 18:00 a 24:00 en mm
DESCASC
22-01-2020 6.8 (15:30) 1.9 (08:10) 4.4 11.11 (00:10) 8.06 (00:10) 0.8 0.8 0 0 0
21-01-2020 5.9 (11:50) -0.6 (03:20) 2.7 19.44 (18:20) 12.5 (22:00) 1.6 0 0 1.6 0
20-01-2020 5.2 (15:30) -4.2 (08:40) 0.5 13.33 (02:00) 8.06 (02:00) 0 0 0 0 0
19-01-2020 6.9 (15:00) -2.2 (-00:0) 2.4 17.22 (16:30) 10.83 (16:20) 0 0 0 0 0
18-01-2020 7.9 (17:10) -2.7 (-00:0) 2.6 27.5 (19:40) 10.28 (19:50) 6.6 0 0 0.2 6.4
17-01-2020 8.8 (14:20) -2.1 (-00:0) 3.4 13.61 (13:40) 10.28 (14:30) 2.8 1.2 1.6 0 0
16-01-2020 14.3 (14:40) -1.3 (-00:0) 6.5 10.56 (15:30) 7.78 (15:30) 0.2 0 0 0 0.2
15-01-2020 10.4 (17:20) -3.3 (-00:0) 3.5 7.22 (17:30) 5 (17:30) 0 0 0 0 0
14-01-2020 8 (16:10) -5.7 (-00:0) 1.2 8.06 (15:30) 5.28 (16:30) 0 0 0 0 0
13-01-2020 7.7 (13:10) -6.7 (-00:0) 0.5 5.83 (15:50) 4.17 (15:50) 0 0 0 0 0
12-01-2020 7.1 (15:40) -6.6 (03:30) 0.3 7.5 (14:50) 5.28 (14:40) 0.2 0 0 0.2 0
11-01-2020 7.1 (15:40) -5.6 (-00:0) 0.8 6.39 (17:40) 5 (17:40) 0 0 0 0 0
10-01-2020 9.1 (15:40) -0.7 (-00:0) 4.2 9.44 (00:10) 6.39 (14:20) 0 0 0 0 0
09-01-2020 10.1 (13:50) -3 (-00:0) 3.6 9.44 (22:00) 6.67 (22:00) 0.2 0 0 0 0.2
08-01-2020 18 (16:00) -4.2 (-00:0) 6.9 3.06 (12:00) 1.39 (12:00) 0 0 0 0 0
07-01-2020 11 (15:30) -6.2 (-00:0) 2.4 5.83 (15:20) 4.17 (18:30) 0 0 0 0 0
06-01-2020 12.6 (15:50) -6.2 (-00:0) 3.2 6.11 (15:30) 3.89 (15:30) 1.4 0 0.2 1.2 0
05-01-2020 3.5 (14:50) -4.6 (-00:0) -0.5 4.44 (15:30) 3.61 (15:20) 0 0 0 0 0
04-01-2020 9 (15:40) -3.1 (-00:0) 3 4.17 (10:10) 2.22 (12:40) 0 0 0 0 0
03-01-2020 3.7 (16:30) -4.3 (-00:0) -0.3 7.78 (07:10) 5 (07:20) 0 0 0 0 0
02-01-2020 13.6 (13:20) -6.2 (-00:0) 3.7 2.78 (15:20) 2.22 (15:20) 0 0 0 0 0
01-01-2020 13.8 (16:20) -6.4 (-00:0) 3.7 4.44 (15:40) 3.61 (18:40) 0 0 0 0 0
31-12-2019 14 (13:20) -4 (-00:0) 5 4.17 (16:10) 3.61 (16:20) 0 0 0 0 0
30-12-2019 -- (--) -- (--) -- -- (--) -- (--) -- 0 0 0 --
29-12-2019 14.4 (13:40) -5.6 (-00:0) 4.4 4.72 (18:40) 3.33 (18:40) 0 0 0 0 0
28-12-2019 13.6 (15:30) -6.4 (-00:0) 3.6 5 (16:20) 3.89 (14:30) 0.2 0 0.2 0 0
27-12-2019 11.9 (16:00) -3.8 (-00:0) 4 3.61 (13:40) 2.78 (13:40) 0 0 0 0 0

Gráficas

Temp. máximas Temp. mínimas Temp. medias Precipitaciones Rachas de viento máximas Velocidades máximas media en intervalos de 10 minutos

Datos horarios

Fecha y hora oficial Temperatura (ºC) Velocidad del viento (km/h) Dirección del viento Racha (km/h) Dirección de racha Precipitación (mm) Presión (hPa) Tendencia (hPa) Humedad (%)
2020-01-25 23:00:00 4.5 2 Oeste 11 Oeste 2.8 -- -- 95
2020-01-25 22:00:00 4.7 4 Oeste 9 Oeste 1 -- -- 93
2020-01-25 21:00:00 5.3 5 Sudoeste 8 Sudoeste 0.4 -- -- 88
2020-01-25 20:00:00 5.7 5 Sur 12 Sudoeste 0 -- -- 82
2020-01-25 19:00:00 6.4 9 Sur 20 Sur 0 -- -- 78
2020-01-25 18:00:00 7.3 10 Sudeste 19 Sudeste 0 -- -- 78
2020-01-25 17:00:00 8.1 11 Sudeste 18 Sudeste 0 -- -- 72
2020-01-25 16:00:00 9 11 Sur 21 Sur 0 -- -- 68
2020-01-25 15:00:00 8.9 6 Sur 17 Sur 0 -- -- 69
2020-01-25 14:00:00 8.4 8 Este 19 Este 0 -- -- 81
2020-01-25 13:00:00 7.2 10 Este 21 Este 0 -- -- 86
2020-01-25 12:00:00 5.8 11 Este 24 Este 0 -- -- 90
2020-01-25 11:00:00 6.2 10 Este 24 Este 0 -- -- 91
2020-01-25 10:00:00 3.8 12 Este 20 Este 0.2 -- -- 96
2020-01-25 09:00:00 3.2 13 Este 19 Este 0.6 -- -- 97
2020-01-25 08:00:00 3 6 Este 14 Este 1.2 -- -- 96
2020-01-25 07:00:00 2.6 4 Nordeste 12 Este 0.6 -- -- 96
2020-01-25 06:00:00 2.3 5 Este 10 Nordeste 0 -- -- 96
2020-01-25 05:00:00 2.3 6 Este 11 Este 0 -- -- 96
2020-01-25 04:00:00 2.4 6 Este 13 Este 0 -- -- 96
2020-01-25 03:00:00 2.8 8 Este 12 Este 0 -- -- 96
2020-01-25 02:00:00 2.8 8 Este 12 Este 0 -- -- 97
2020-01-25 01:00:00 1.6 3 Este 4 Este 0 -- -- 96
2020-01-25 00:00:00 0.6 3 Este 5 Este 0 -- -- 96
2020-01-24 23:00:00 0.9 4 Este 6 Este 0 -- -- 94
2020-01-24 22:00:00 1.5 3 Nordeste 8 Este 0 -- -- 94
2020-01-24 21:00:00 2.6 8 Nordeste 12 Este 0 -- -- 91
2020-01-24 20:00:00 3.7 2 Este 13 Sudeste 0 -- -- 87
2020-01-24 19:00:00 5.1 4 Este 14 Sur 0 -- -- 81
2020-01-24 18:00:00 6.6 9 Sur 19 Sur 0 -- -- 72
2020-01-24 17:00:00 7.4 12 Sudeste 22 Sudeste 0 -- -- 74
2020-01-24 16:00:00 8.2 16 Este 23 Este 0 -- -- 72
2020-01-24 15:00:00 7.2 16 Este 22 Este 0 -- -- 76
2020-01-24 14:00:00 6.8 13 Este 18 Este 0 -- -- 81
2020-01-24 13:00:00 6.9 9 Este 17 Sudeste 0 -- -- 79
2020-01-24 12:00:00 6.8 10 Este 22 Este 0 -- -- 78
2020-01-24 11:00:00 6.8 15 Este 23 Este 0 -- -- 79
2020-01-24 10:00:00 4.8 12 Este 17 Este 0 -- -- 85
2020-01-24 09:00:00 2.2 4 Este 16 Este 0 -- -- 94
2020-01-24 08:00:00 2.1 8 Este 14 Este 0 -- -- 94
2020-01-24 07:00:00 2.3 7 Este 13 Este 0 -- -- 93
2020-01-24 06:00:00 3 7 Este 16 Este 0 -- -- 92
2020-01-24 05:00:00 3.2 14 Este 20 Este 0 -- -- 91
2020-01-24 04:00:00 3.4 10 Este 19 Este 0 -- -- 90
2020-01-24 03:00:00 3.4 12 Este 18 Este 0 -- -- 90
2020-01-24 02:00:00 3.1 8 Este 14 Este 0 -- -- 91
2020-01-24 01:00:00 2.7 8 Este 15 Este 0 -- -- 92
2020-01-24 00:00:00 2.6 8 Este 14 Este 0 -- -- 92
2020-01-23 23:00:00 2.2 5 Este 12 Este 0 -- -- 92
2020-01-23 22:00:00 2 5 Nordeste 13 Este 0 -- -- 92
2020-01-23 21:00:00 2.4 7 Este 13 Nordeste 0 -- -- 89
2020-01-23 20:00:00 4 5 Este 21 Sudeste 0 -- -- 79
2020-01-23 19:00:00 5.3 12 Sudeste 21 Sudeste 0 -- -- 77
2020-01-23 18:00:00 6.1 13 Sudeste 26 Sudeste 0 -- -- 74
2020-01-23 17:00:00 7.3 17 Sudeste 27 Sudeste 0 -- -- 71
2020-01-23 16:00:00 9.4 16 Este 24 Este 0 -- -- 66
2020-01-23 15:00:00 9.5 16 Este 25 Este 0 -- -- 67
2020-01-23 14:00:00 8.4 15 Este 24 Este 0 -- -- 71
2020-01-23 13:00:00 6.9 14 Este 27 Este 0 -- -- 76
2020-01-23 12:00:00 3 17 Este 27 Este 0 -- -- 92
2020-01-23 11:00:00 2.5 14 Sudeste 24 Sudeste 0 -- -- 93
2020-01-23 10:00:00 2.3 15 Sudeste 24 Este 0 -- -- 94
2020-01-23 09:00:00 2.2 17 Este 26 Este 0 -- -- 94
2020-01-23 08:00:00 2 15 Este 24 Sudeste 0 -- -- 94
2020-01-23 07:00:00 2.2 17 Este 22 Este 0 -- -- 93
2020-01-23 06:00:00 2.7 16 Este 25 Este 0 -- -- 90
2020-01-23 05:00:00 2.9 12 Este 19 Este 0 -- -- 93
2020-01-23 04:00:00 2.9 9 Este 18 Este 0 -- -- 93
2020-01-23 03:00:00 2.9 8 Este 15 Este 0 -- -- 92
2020-01-23 02:00:00 2.6 4 Este 15 Este 0 -- -- 90
2020-01-23 01:00:00 3.1 9 Este 19 Sudeste 0 -- -- 88
2020-01-23 00:00:00 3.5 15 Sudeste 27 Sudeste 0 -- -- 87
2020-01-22 23:00:00 2.9 4 Este 9 Este 0 -- -- 93
2020-01-22 22:00:00 2.9 5 Este 8 Este 0 -- -- 93
2020-01-22 21:00:00 2.9 3 Este 22 Sudeste 0 -- -- 91
2020-01-22 20:00:00 3.4 13 Este 25 Este 0 -- -- 89
2020-01-22 19:00:00 4.6 8 Sudeste 23 Este 0 -- -- 82
2020-01-22 18:00:00 5.4 15 Este 28 Este 0 -- -- 76
2020-01-22 17:00:00 6.3 19 Sudeste 28 Este 0 -- -- 77
2020-01-22 16:00:00 6.2 16 Sudeste 22 Sudeste 0 -- -- 78
2020-01-22 15:00:00 6.4 10 Sudeste 26 Sudeste 0 -- -- 77
2020-01-22 14:00:00 5.8 14 Sudeste 31 Este 0 -- -- 81
2020-01-22 13:00:00 5.3 17 Este 31 Este 0 -- -- 84
2020-01-22 12:00:00 5.1 21 Este 32 Este 0 -- -- 85
2020-01-22 11:00:00 4.2 21 Este 27 Este 0 -- -- 87
2020-01-22 10:00:00 3.3 10 Este 23 Este 0 -- -- 90
2020-01-22 09:00:00 2.6 12 Este 23 Este 0 -- -- 92
2020-01-22 08:00:00 2 15 Este 23 Este 0 -- -- 91
2020-01-22 07:00:00 2.4 12 Sudeste 22 Este 0 -- -- 89
2020-01-22 06:00:00 2.3 13 Este 17 Este 0 -- -- 90
2020-01-22 05:00:00 2 10 Este 28 Este 0 -- -- 90
2020-01-22 04:00:00 2.4 17 Este 32 Este 0 -- -- 88
2020-01-22 03:00:00 2.6 10 Este 22 Este 0.2 -- -- 93
2020-01-22 02:00:00 2.9 18 Este 33 Este 0.2 -- -- 92
2020-01-22 01:00:00 3.1 19 Este 40 Este 0.4 -- -- 90
2020-01-22 00:00:00 3.5 28 Este 47 Este 0 -- -- 89
2020-01-21 23:00:00 4.3 33 Este 65 Este 0 -- -- 83
2020-01-21 22:00:00 4.8 45 Este 64 Este 0 -- -- 81
2020-01-21 21:00:00 5.5 43 Este 67 Este 0 -- -- 80
2020-01-21 20:00:00 5.8 43 Este 69 Este 0 -- -- 76
2020-01-21 19:00:00 5.7 38 Este 70 Este 0 -- -- 76
2020-01-21 18:00:00 5.1 32 Este 63 Este 0.2 -- -- 80
2020-01-21 17:00:00 5.6 32 Este 55 Nordeste 0 -- -- 75
2020-01-21 16:00:00 4.9 18 Este 40 Este 0.8 -- -- 82
2020-01-21 15:00:00 4.1 31 Este 50 Este 0.2 -- -- 81
2020-01-21 14:00:00 4.7 33 Este 51 Este 0.4 -- -- 78
2020-01-21 13:00:00 5.6 33 Este 55 Este 0 -- -- 72
2020-01-21 12:00:00 5.9 35 Este 53 Este 0 -- -- 69
2020-01-21 11:00:00 4.6 14 Este 23 Este 0 -- -- 74
2020-01-21 10:00:00 3.2 9 Este 29 Este 0 -- -- 82
2020-01-21 09:00:00 3.1 16 Este 30 Este 0 -- -- 80
2020-01-21 08:00:00 2.9 9 Este 16 Este 0 -- -- 76
2020-01-21 07:00:00 1.9 0 Calma 8 Nordeste 0 -- -- 79
2020-01-21 06:00:00 0.9 3 Oeste 12 Este 0 -- -- 80
2020-01-21 05:00:00 0.5 4 Sudoeste 9 Sudoeste 0 -- -- 77
2020-01-21 04:00:00 -0.4 3 Oeste 4 Sur 0 -- -- 81
2020-01-21 03:00:00 -0.4 0 Calma 9 Sudoeste 0 -- -- 78
2020-01-21 02:00:00 0.2 3 Noroeste 8 Sur 0 -- -- 73
2020-01-21 01:00:00 -0.2 2 Nordeste 10 Este 0 -- -- 74
2020-01-21 00:00:00 -0.3 0 Calma 5 Noroeste 0 -- -- 72
2020-01-20 23:00:00 0.5 0 Calma 4 Sudeste 0 -- -- 69
2020-01-20 22:00:00 2.1 0 Calma 9 Sudoeste 0 -- -- 57
2020-01-20 21:00:00 1.9 3 Este 12 Nordeste 0 -- -- 55
2020-01-20 20:00:00 1.5 3 Este 16 Nordeste 0 -- -- 59
2020-01-20 19:00:00 3 9 Este 34 Este 0 -- -- 51
2020-01-20 18:00:00 3.6 14 Este 23 Nordeste 0 -- -- 47
2020-01-20 17:00:00 4.2 13 Nordeste 34 Este 0 -- -- 47
2020-01-20 16:00:00 4.9 22 Este 36 Este 0 -- -- 41
2020-01-20 15:00:00 4.3 6 Nordeste 14 Este 0 -- -- 41
2020-01-20 14:00:00 3.6 0 Calma 7 Sur 0 -- -- 41
2020-01-20 13:00:00 3.2 0 Calma 10 Oeste 0 -- -- 41
2020-01-20 12:00:00 1.3 7 Oeste 10 Oeste 0 -- -- 43
2020-01-20 11:00:00 1.4 5 Sudoeste 15 Oeste 0 -- -- 44
2020-01-20 10:00:00 -0.5 8 Sudoeste 13 Oeste 0 -- -- 52
2020-01-20 09:00:00 -3.6 3 Oeste 9 Oeste 0 -- -- 62
2020-01-20 08:00:00 -3.3 0 Calma 6 Oeste 0 -- -- 56
2020-01-20 07:00:00 -3.4 3 Noroeste 13 Oeste 0 -- -- 59
2020-01-20 06:00:00 -3.3 8 Oeste 19 Oeste 0 -- -- 60
2020-01-20 05:00:00 -1 2 Noroeste 24 Norte 0 -- -- 42
2020-01-20 04:00:00 -0.2 15 Nordeste 38 Nordeste 0 -- -- 40
2020-01-20 03:00:00 0.1 18 Nordeste 40 Nordeste 0 -- -- 41
2020-01-20 02:00:00 0.3 29 Nordeste 48 Nordeste 0 -- -- 42
2020-01-20 01:00:00 -1.4 4 Oeste 20 Oeste 0 -- -- 49
2020-01-20 00:00:00 -1.8 9 Sudoeste 15 Sudoeste 0 -- -- 58
2020-01-19 23:00:00 -1 4 Sudoeste 10 Sur 0 -- -- 53
2020-01-19 22:00:00 -0.9 4 Oeste 20 Norte 0 -- -- 53
2020-01-19 21:00:00 0.5 12 Norte 24 Norte 0 -- -- 47
2020-01-19 20:00:00 1.4 12 Norte 23 Nordeste 0 -- -- 41
2020-01-19 19:00:00 0.3 8 Noroeste 25 Nordeste 0 -- -- 50
2020-01-19 18:00:00 3 13 Nordeste 46 Nordeste 0 -- -- 39
2020-01-19 17:00:00 5 31 Nordeste 62 Nordeste 0 -- -- 36
2020-01-19 16:00:00 6 32 Nordeste 56 Nordeste 0 -- -- 35
2020-01-19 15:00:00 6.9 29 Nordeste 59 Nordeste 0 -- -- 34
2020-01-19 14:00:00 6 37 Nordeste 52 Nordeste 0 -- -- 36
2020-01-19 13:00:00 6.3 13 Norte 36 Nordeste 0 -- -- 40
2020-01-19 12:00:00 5.9 3 Sudeste 28 Nordeste 0 -- -- 51
2020-01-19 11:00:00 4.8 18 Nordeste 40 Norte 0 -- -- 60
2020-01-19 10:00:00 3.7 22 Nordeste 48 Nordeste 0 -- -- 63
2020-01-19 09:00:00 3.1 16 Noroeste 25 Oeste 0 -- -- 89
2020-01-19 08:00:00 2.4 18 Noroeste 26 Noroeste 0 -- -- 94
2020-01-19 07:00:00 2.5 19 Oeste 27 Oeste 0 -- -- 93
2020-01-19 06:00:00 2.7 18 Oeste 28 Oeste 0 -- -- 92
2020-01-19 05:00:00 2.4 16 Oeste 25 Oeste 0 -- -- 93
2020-01-19 04:00:00 2.2 15 Oeste 21 Noroeste 0 -- -- 92
2020-01-19 03:00:00 1.7 14 Oeste 21 Oeste 0 -- -- 97
2020-01-19 02:00:00 2.9 12 Oeste 20 Oeste 0 -- -- 94
2020-01-19 01:00:00 3.5 16 Oeste 21 Oeste 0 -- -- 95
2020-01-19 00:00:00 3.9 11 Oeste 20 Oeste 0 -- -- 94
2020-01-18 23:00:00 4.5 15 Oeste 19 Oeste 0 -- -- 94
2020-01-18 22:00:00 4.5 10 Oeste 29 Oeste 0 -- -- 93
2020-01-18 21:00:00 4.6 18 Oeste 32 Oeste 0.6 -- -- 93
2020-01-18 20:00:00 3.8 28 Oeste 99 Oeste 5.6 -- -- 95
2020-01-18 19:00:00 6.7 4 Sudoeste 11 Sudoeste 0.2 -- -- 86
2020-01-18 18:00:00 6.9 3 Sur 22 Sudoeste 0 -- -- 84
2020-01-18 17:00:00 7.8 11 Sur 18 Sur 0 -- -- 80
2020-01-18 16:00:00 7.3 3 Nordeste 6 Este 0 -- -- 91
2020-01-18 15:00:00 7.5 3 Este 9 Sudeste 0 -- -- 87
2020-01-18 14:00:00 6.6 5 Sur 15 Sudoeste 0.2 -- -- 90
2020-01-18 13:00:00 6.4 3 Nordeste 7 Este 0 -- -- 88
2020-01-18 12:00:00 5.1 5 Este 11 Este 0 -- -- 85
2020-01-18 11:00:00 3.5 6 Este 9 Este 0 -- -- 92
2020-01-18 10:00:00 0.6 2 Nordeste 7 Este 0 -- -- 96
2020-01-18 09:00:00 -0.4 5 Este 9 Este 0 -- -- 96
2020-01-18 08:00:00 -0.6 0 Calma 5 Este 0 -- -- 96
2020-01-18 07:00:00 -0.6 3 Este 6 Nordeste 0 -- -- 96
2020-01-18 06:00:00 -1.1 3 Sudeste 7 Este 0 -- -- 97
2020-01-18 05:00:00 -1.6 4 Nordeste 8 Nordeste 0 -- -- 96
2020-01-18 04:00:00 -1.8 2 Sudeste 4 Este 0 -- -- 96
2020-01-18 03:00:00 -1.8 2 Sur 6 Este 0 -- -- 97
2020-01-18 02:00:00 -2.6 4 Este 8 Nordeste 0 -- -- 96
2020-01-18 01:00:00 -2.2 3 Nordeste 6 Este 0 -- -- 95
2020-01-18 00:00:00 -2.1 0 Calma 4 Este 0 -- -- 95
2020-01-17 23:00:00 -1.1 0 Calma 4 Sudeste 0 -- -- 93
2020-01-17 22:00:00 0.4 0 Calma 8 Sudoeste 0 -- -- 90
2020-01-17 21:00:00 2.5 5 Noroeste 10 Noroeste 0 -- -- 86
2020-01-17 20:00:00 3.4 0 Calma 9 Noroeste 0 -- -- 79
2020-01-17 19:00:00 4 6 Noroeste 19 Oeste 0 -- -- 77
2020-01-17 18:00:00 5.5 12 Oeste 29 Oeste 0 -- -- 71
2020-01-17 17:00:00 6.7 24 Oeste 37 Oeste 0 -- -- 67
2020-01-17 16:00:00 7.4 29 Oeste 43 Oeste 0 -- -- 65
2020-01-17 15:00:00 8 32 Oeste 48 Oeste 0 -- -- 61
2020-01-17 14:00:00 8.2 32 Oeste 49 Oeste 0 -- -- 61
2020-01-17 13:00:00 8.5 30 Oeste 48 Oeste 0 -- -- 70
2020-01-17 12:00:00 6.5 26 Oeste 42 Oeste 0 -- -- 83
2020-01-17 11:00:00 5.7 17 Oeste 30 Oeste 0.4 -- -- 89
2020-01-17 10:00:00 5.3 15 Oeste 30 Oeste 0.4 -- -- 92
2020-01-17 09:00:00 5 23 Oeste 35 Oeste 0.4 -- -- 91
2020-01-17 08:00:00 4.8 27 Oeste 37 Oeste 0.2 -- -- 90
2020-01-17 07:00:00 5 16 Oeste 26 Oeste 0.2 -- -- 88
2020-01-17 06:00:00 4.5 11 Oeste 18 Oeste 0 -- -- 87
2020-01-17 05:00:00 3.8 6 Oeste 9 Oeste 0 -- -- 96
2020-01-17 04:00:00 3.8 3 Sur 7 Sur 0 -- -- 95
2020-01-17 03:00:00 4.7 0 Calma 10 Noroeste 0 -- -- 92
2020-01-17 02:00:00 5.1 3 Sudeste 9 Sudoeste 0 -- -- 90
2020-01-17 01:00:00 5.7 9 Sudoeste 13 Sudoeste 1.2 -- -- 85
2020-01-17 00:00:00 6.6 10 Sudoeste 19 Oeste 0.2 -- -- 76
2020-01-16 23:00:00 5.9 3 Este 8 Sur 0 -- -- 75
2020-01-16 22:00:00 6.9 3 Sudoeste 22 Sur 0 -- -- 68
2020-01-16 21:00:00 8.3 12 Sudoeste 24 Sudoeste 0 -- -- 64
2020-01-16 20:00:00 7.9 13 Sudoeste 25 Sudoeste 0 -- -- 65
2020-01-16 19:00:00 7.2 7 Sur 18 Sur 0 -- -- 65
2020-01-16 18:00:00 9.1 12 Sur 27 Sur 0 -- -- 58
2020-01-16 17:00:00 12.1 18 Sur 35 Sur 0 -- -- 51
2020-01-16 16:00:00 12.8 24 Sur 38 Sur 0 -- -- 57
2020-01-16 15:00:00 13.7 24 Sudoeste 34 Sur 0 -- -- 55
2020-01-16 14:00:00 13.1 11 Sur 18 Sudoeste 0 -- -- 60
2020-01-16 13:00:00 12.1 6 Sudoeste 16 Sudoeste 0 -- -- 66
2020-01-16 12:00:00 10.9 2 Este 6 Este 0 -- -- 74
2020-01-16 11:00:00 6.8 3 Nordeste 7 Este 0 -- -- 91
2020-01-16 10:00:00 3.2 3 Este 7 Este 0 -- -- 97
2020-01-16 09:00:00 -0.1 3 Este 9 Nordeste 0 -- -- 99
2020-01-16 08:00:00 -0.8 5 Este 8 Este 0 -- -- 99
2020-01-16 07:00:00 -1.2 3 Este 7 Nordeste 0 -- -- 98
2020-01-16 06:00:00 -0.9 5 Nordeste 8 Este 0 -- -- 98
2020-01-16 05:00:00 -0.6 3 Este 6 Este 0 -- -- 98
2020-01-16 04:00:00 -0.2 3 Este 5 Este 0 -- -- 98
2020-01-16 03:00:00 0.2 0 Calma 6 Este 0 -- -- 98
2020-01-16 02:00:00 0.2 4 Nordeste 8 Nordeste 0 -- -- 97
2020-01-16 01:00:00 1 3 Nordeste 6 Este 0 -- -- 96
2020-01-16 00:00:00 1.5 3 Nordeste 9 Nordeste 0 -- -- 92
2020-01-15 23:00:00 3.8 3 Este 4 Este 0 -- -- 91
2020-01-15 22:00:00 3.9 0 Calma 8 Nordeste 0 -- -- 89
2020-01-15 21:00:00 5.3 2 Nordeste 6 Sudeste 0 -- -- 86
2020-01-15 20:00:00 6.1 4 Sudeste 9 Este 0 -- -- 86
2020-01-15 19:00:00 6.9 0 Calma 18 Oeste 0 -- -- 81
2020-01-15 18:00:00 8.9 14 Oeste 26 Oeste 0 -- -- 75
2020-01-15 17:00:00 9.3 8 Oeste 14 Oeste 0 -- -- 72
2020-01-15 16:00:00 9.4 3 Oeste 8 Sudoeste 0 -- -- 71
2020-01-15 15:00:00 8.7 3 Sur 7 Sudeste 0 -- -- 70
2020-01-15 14:00:00 9 3 Este 8 Este 0 -- -- 70
2020-01-15 13:00:00 7.2 3 Norte 9 Nordeste 0 -- -- 76
2020-01-15 12:00:00 7.7 3 Este 8 Este 0 -- -- 76
2020-01-15 11:00:00 3 4 Nordeste 7 Este 0 -- -- 92
2020-01-15 10:00:00 1.2 3 Este 5 Nordeste 0 -- -- 95
2020-01-15 09:00:00 -1.3 4 Nordeste 8 Este 0 -- -- 97
2020-01-15 08:00:00 -2.7 3 Nordeste 6 Nordeste 0 -- -- 96
2020-01-15 07:00:00 -2.6 3 Nordeste 7 Nordeste 0 -- -- 96
2020-01-15 06:00:00 -2.5 0 Calma 6 Este 0 -- -- 95
2020-01-15 05:00:00 -2.1 0 Calma 4 Este 0 -- -- 95
2020-01-15 04:00:00 -1.8 4 Este 6 Este 0 -- -- 95
2020-01-15 03:00:00 -1.8 4 Este 6 Este 0 -- -- 94
2020-01-15 02:00:00 -2.4 2 Este 6 Este 0 -- -- 95
2020-01-15 01:00:00 -2.9 4 Este 6 Este 0 -- -- 95
2020-01-15 00:00:00 -2.7 3 Nordeste 7 Este 0 -- -- 96
2020-01-14 23:00:00 -2.8 5 Este 9 Nordeste 0 -- -- 95
2020-01-14 22:00:00 -2.8 0 Calma 5 Este 0 -- -- 92
2020-01-14 21:00:00 -1.1 3 Nordeste 5 Nordeste 0 -- -- 91
2020-01-14 20:00:00 0.9 2 Nordeste 3 Nordeste 0 -- -- 86
2020-01-14 19:00:00 3.2 0 Calma 4 Sudoeste 0 -- -- 77
2020-01-14 18:00:00 4.9 4 Oeste 17 Oeste 0 -- -- 72
2020-01-14 17:00:00 7.7 13 Oeste 28 Sudoeste 0 -- -- 62
2020-01-14 16:00:00 7.9 15 Oeste 29 Sudoeste 0 -- -- 62
2020-01-14 15:00:00 7 5 Oeste 14 Oeste 0 -- -- 66
2020-01-14 14:00:00 6.6 9 Sudoeste 17 Oeste 0 -- -- 65
2020-01-14 13:00:00 4.9 5 Sudoeste 16 Sudoeste 0 -- -- 70
2020-01-14 12:00:00 1.9 7 Sudoeste 13 Sudoeste 0 -- -- 90
2020-01-14 11:00:00 0.6 9 Sudoeste 12 Oeste 0 -- -- 90
2020-01-14 10:00:00 -0.3 0 Calma 5 Sudoeste 0 -- -- 90
2020-01-14 09:00:00 -1.2 5 Sudoeste 7 Sudoeste 0 -- -- 93
2020-01-14 08:00:00 -2.7 0 Calma 3 Sudoeste 0 -- -- 93
2020-01-14 07:00:00 -2.3 2 Sudoeste 7 Sudoeste 0 -- -- 89
2020-01-14 06:00:00 -3.7 0 Calma 2 Sudeste 0 -- -- 94
2020-01-14 05:00:00 -5.3 0 Calma 4 Sudoeste 0 -- -- 94
2020-01-14 04:00:00 -5.6 0 Calma 4 Sudeste 0 -- -- 95
2020-01-14 03:00:00 -5.5 0 Calma 4 Sur 0 -- -- 94
2020-01-14 02:00:00 -5.2 0 Calma 3 Este 0 -- -- 95
2020-01-14 01:00:00 -4.8 0 Calma 2 Sur 0 -- -- 94
2020-01-14 00:00:00 -4 0 Calma 3 Sudeste 0 -- -- 94
2020-01-13 23:00:00 -3.7 2 Sudeste 5 Noroeste 0 -- -- 93
2020-01-13 22:00:00 -3.3 0 Calma 6 Nordeste 0 -- -- 91
2020-01-13 21:00:00 -2.6 2 Nordeste 7 Sudeste 0 -- -- 91
2020-01-13 20:00:00 -0.3 0 Calma 7 Este 0 -- -- 87
2020-01-13 19:00:00 1.8 0 Calma 6 Oeste 0 -- -- 80
2020-01-13 18:00:00 3.9 5 Oeste 13 Oeste 0 -- -- 68
2020-01-13 17:00:00 7 10 Noroeste 18 Noroeste 0 -- -- 58
2020-01-13 16:00:00 6.4 12 Noroeste 21 Noroeste 0 -- -- 57
2020-01-13 15:00:00 7.1 11 Noroeste 17 Noroeste 0 -- -- 57
2020-01-13 14:00:00 6.7 8 Oeste 16 Oeste 0 -- -- 53
2020-01-13 13:00:00 6 2 Oeste 5 Oeste 0 -- -- 61
2020-01-13 12:00:00 3.9 0 Calma 5 Nordeste 0 -- -- 72
2020-01-13 11:00:00 -0.6 2 Sudeste 4 Sudeste 0 -- -- 84
2020-01-13 10:00:00 -3.5 0 Calma 3 Sudeste 0 -- -- 91
2020-01-13 09:00:00 -6.1 0 Calma -- -- 0 -- -- 94
2020-01-13 08:00:00 -6.2 4 Este 6 Este 0 -- -- 95
2020-01-13 07:00:00 -6.5 0 Calma 3 Este 0 -- -- 95
2020-01-13 06:00:00 -6.5 2 Nordeste 4 Nordeste 0 -- -- 96
2020-01-13 05:00:00 -6.2 3 Este 5 Este 0 -- -- 96
2020-01-13 04:00:00 -5.5 2 Este 4 Este 0 -- -- 96
2020-01-13 03:00:00 -4.9 2 Nordeste 3 Este 0 -- -- 96
2020-01-13 02:00:00 -4.7 0 Calma 3 Nordeste 0 -- -- 96
2020-01-13 01:00:00 -4.6 2 Nordeste 5 Nordeste 0 -- -- 96
2020-01-13 00:00:00 -4 3 Nordeste 6 Nordeste 0 -- -- 96
2020-01-12 23:00:00 -3.3 3 Este 5 Este 0 -- -- 95
2020-01-12 22:00:00 -2.5 3 Sudeste 4 Sudeste 0 -- -- 94
2020-01-12 21:00:00 -1.1 3 Oeste 6 Oeste 0 -- -- 92
2020-01-12 20:00:00 -0.5 7 Oeste 9 Oeste 0 -- -- 89
2020-01-12 19:00:00 2 4 Oeste 12 Noroeste 0 -- -- 80
2020-01-12 18:00:00 3.5 6 Noroeste 18 Oeste 0 -- -- 69
2020-01-12 17:00:00 6.6 10 Oeste 22 Noroeste 0 -- -- 58
2020-01-12 16:00:00 6.8 18 Noroeste 26 Oeste 0 -- -- 60
2020-01-12 15:00:00 6.5 18 Oeste 27 Oeste 0 -- -- 65
2020-01-12 14:00:00 4.9 19 Oeste 25 Oeste 0 -- -- 92
2020-01-12 13:00:00 2.1 0 Calma 10 Oeste 0.2 -- -- 94
2020-01-12 12:00:00 -0.6 0 Calma -- -- 0 -- -- 97
2020-01-12 11:00:00 -1.8 0 Calma -- -- 0 -- -- 96
2020-01-12 10:00:00 -3.2 0 Calma -- -- 0 -- -- 97
2020-01-12 09:00:00 -3.4 0 Calma -- -- 0 -- -- 96
2020-01-12 08:00:00 -3.1 0 Calma -- -- 0 -- -- 97
2020-01-12 07:00:00 -3.2 0 Calma -- -- 0 -- -- 97
2020-01-12 06:00:00 -3.8 0 Calma -- -- 0 -- -- 96
2020-01-12 05:00:00 -4.5 0 Calma -- -- 0 -- -- 96
2020-01-12 04:00:00 -5.8 0 Calma -- -- 0 -- -- 95
2020-01-12 03:00:00 -6 0 Calma -- -- 0 -- -- 95
2020-01-12 02:00:00 -5.6 0 Calma -- -- 0 -- -- 95
2020-01-12 01:00:00 -4.4 0 Calma -- -- 0 -- -- 96
2020-01-12 00:00:00 -4.1 0 Calma -- -- 0 -- -- 96
2020-01-11 23:00:00 -3.7 0 Calma -- -- 0 -- -- 96
2020-01-11 22:00:00 -3.5 0 Calma -- -- 0 -- -- 96
2020-01-11 21:00:00 -2.8 0 Calma 16 Oeste 0 -- -- 96
2020-01-11 20:00:00 -2.2 14 Oeste 22 Oeste 0 -- -- 96
2020-01-11 19:00:00 -2 13 Oeste 17 Oeste 0 -- -- 93
2020-01-11 18:00:00 1.3 10 Noroeste 23 Noroeste 0 -- -- 75
2020-01-11 17:00:00 5.2 14 Oeste 18 Oeste 0 -- -- 70
2020-01-11 16:00:00 6.8 13 Oeste 17 Oeste 0 -- -- 58
2020-01-11 15:00:00 6.8 13 Oeste 18 Oeste 0 -- -- 59
2020-01-11 14:00:00 5.6 11 Oeste 17 Oeste 0 -- -- 81
2020-01-11 13:00:00 2.5 10 Oeste 13 Oeste 0 -- -- 93
2020-01-11 12:00:00 -0.9 0 Calma 5 Este 0 -- -- 94
2020-01-11 11:00:00 -2.6 3 Este 7 Este 0 -- -- 95
2020-01-11 10:00:00 -3.3 2 Este 3 Este 0 -- -- 95
2020-01-11 09:00:00 -4.1 0 Calma 2 Sudeste 0 -- -- 96
2020-01-11 08:00:00 -4.2 0 Calma 2 Sudeste 0 -- -- 95
2020-01-11 07:00:00 -4.1 0 Calma 3 Sudeste 0 -- -- 95
2020-01-11 06:00:00 -4.5 0 Calma 3 Sur 0 -- -- 94
2020-01-11 05:00:00 -5.4 2 Sur 5 Sur 0 -- -- 96
2020-01-11 04:00:00 -4.5 0 Calma 6 Sudeste 0 -- -- 96
2020-01-11 03:00:00 -3.4 3 Sudeste 4 Sudeste 0 -- -- 93
2020-01-11 02:00:00 -1.4 3 Sudoeste 15 Oeste 0 -- -- 91
2020-01-11 01:00:00 -0.9 14 Oeste 18 Oeste 0 -- -- 90
2020-01-11 00:00:00 -0.1 14 Oeste 19 Oeste 0 -- -- 85
2020-01-10 23:00:00 0.7 6 Noroeste 13 Oeste 0 -- -- 82
2020-01-10 22:00:00 1.3 3 Sudoeste 17 Noroeste 0 -- -- 76
2020-01-10 21:00:00 2.5 12 Noroeste 18 Noroeste 0 -- -- 74
2020-01-10 20:00:00 2.6 16 Noroeste 22 Noroeste 0 -- -- 79
2020-01-10 19:00:00 3.7 13 Noroeste 18 Norte 0 -- -- 73
2020-01-10 18:00:00 5.9 14 Norte 26 Norte 0 -- -- 60
2020-01-10 17:00:00 8.2 13 Norte 27 Norte 0 -- -- 51
2020-01-10 16:00:00 8.6 14 Norte 30 Nordeste 0 -- -- 50
2020-01-10 15:00:00 8.6 18 Norte 33 Noroeste 0 -- -- 51
2020-01-10 14:00:00 7.8 21 Noroeste 31 Noroeste 0 -- -- 55
2020-01-10 13:00:00 7.2 23 Noroeste 33 Noroeste 0 -- -- 57
2020-01-10 12:00:00 6.2 22 Noroeste 31 Noroeste 0 -- -- 64
2020-01-10 11:00:00 5.1 14 Noroeste 21 Noroeste 0 -- -- 70
2020-01-10 10:00:00 2.1 8 Oeste 18 Oeste 0 -- -- 86
2020-01-10 09:00:00 -0.7 8 Sudoeste 27 Oeste 0 -- -- 94
2020-01-10 08:00:00 -0.2 2 Sudeste 30 Noroeste 0 -- -- 93
2020-01-10 07:00:00 -0.7 0 Calma 18 Oeste 0 -- -- 92
2020-01-10 06:00:00 0.3 14 Oeste 18 Oeste 0 -- -- 91
2020-01-10 05:00:00 0.9 12 Oeste 21 Oeste 0 -- -- 92
2020-01-10 04:00:00 0.9 4 Sudoeste 18 Noroeste 0 -- -- 91
2020-01-10 03:00:00 2.2 17 Noroeste 26 Noroeste 0 -- -- 86
2020-01-10 02:00:00 3.8 16 Noroeste 26 Oeste 0 -- -- 81
2020-01-10 01:00:00 5 18 Noroeste 34 Noroeste 0 -- -- 78
2020-01-10 00:00:00 6.8 17 Noroeste 30 Oeste 0 -- -- 91
2020-01-09 23:00:00 7.4 19 Oeste 29 Oeste 0 -- -- 90
2020-01-09 22:00:00 8.2 24 Oeste 34 Oeste 0 -- -- 85
2020-01-09 21:00:00 8.1 15 Oeste 24 Oeste 0 -- -- 90
2020-01-09 20:00:00 7.5 9 Oeste 23 Oeste 0.2 -- -- 94
2020-01-09 19:00:00 7.9 17 Oeste 25 Oeste 0 -- -- 90
2020-01-09 18:00:00 8.2 2 Oeste 8 Norte 0 -- -- 83
2020-01-09 17:00:00 9.7 2 Nordeste 10 Noroeste 0 -- -- 77
2020-01-09 16:00:00 9.4 10 Noroeste 19 Oeste 0 -- -- 78
2020-01-09 15:00:00 9.3 4 Oeste 20 Oeste 0 -- -- 75
2020-01-09 14:00:00 9.8 10 Oeste 22 Oeste 0 -- -- 68
2020-01-09 13:00:00 8.5 12 Oeste 21 Oeste 0 -- -- 72
2020-01-09 12:00:00 8.9 2 Oeste 8 Sudeste 0 -- -- 66
2020-01-09 11:00:00 6.4 0 Calma 4 Sudeste 0 -- -- 77
2020-01-09 10:00:00 1.2 0 Calma 5 Sudeste 0 -- -- 89
2020-01-09 09:00:00 -2.2 0 Calma 3 Este 0 -- -- 98
2020-01-09 08:00:00 -2.5 0 Calma 3 Sudeste 0 -- -- 98
2020-01-09 07:00:00 -2.2 0 Calma 4 Este 0 -- -- 97
2020-01-09 06:00:00 -2.2 2 Este 4 Este 0 -- -- 98
2020-01-09 05:00:00 -1.9 0 Calma 3 Este 0 -- -- 98
2020-01-09 04:00:00 -1.6 0 Calma 4 Este 0 -- -- 97
2020-01-09 03:00:00 -0.8 3 Este 5 Oeste 0 -- -- 96
2020-01-09 02:00:00 -0.5 2 Noroeste 5 Oeste 0 -- -- 96
2020-01-09 01:00:00 0.4 0 Calma 4 Este 0 -- -- 95
2020-01-09 00:00:00 0.4 0 Calma 6 Este 0 -- -- 95
2020-01-08 23:00:00 0.8 2 Sudeste 4 Este 0 -- -- 92
2020-01-08 22:00:00 2.3 0 Calma 4 Este 0 -- -- 92
2020-01-08 21:00:00 3.7 0 Calma 3 Nordeste 0 -- -- 88
2020-01-08 20:00:00 4.8 0 Calma 4 Este 0 -- -- 81
2020-01-08 19:00:00 7.7 0 Calma 5 Este 0 -- -- 75
2020-01-08 18:00:00 10.1 2 Este 5 Sudeste 0 -- -- 62
2020-01-08 17:00:00 14.3 4 Sudoeste 7 Sudoeste 0 -- -- 49
2020-01-08 16:00:00 18 0 Calma 4 Este 0 -- -- 40
2020-01-08 15:00:00 15.8 2 Sudeste 5 Sur 0 -- -- 44
2020-01-08 14:00:00 13.2 3 Sudeste 9 Este 0 -- -- 46
2020-01-08 13:00:00 11.8 4 Sudeste 7 Este 0 -- -- 51
2020-01-08 12:00:00 8.5 5 Noroeste 11 Noroeste 0 -- -- 54
2020-01-08 11:00:00 4 3 Este 6 Este 0 -- -- 78
2020-01-08 10:00:00 0.9 0 Calma 4 Sudeste 0 -- -- 84
2020-01-08 09:00:00 -3.5 2 Sudeste 4 Sudeste 0 -- -- 95
2020-01-08 08:00:00 -3.9 2 Sudeste 6 Este 0 -- -- 95
2020-01-08 07:00:00 -4.1 0 Calma 3 Sudoeste 0 -- -- 95
2020-01-08 06:00:00 -3.7 0 Calma 3 Este 0 -- -- 95
2020-01-08 05:00:00 -3.5 0 Calma 4 Sudeste 0 -- -- 94
2020-01-08 04:00:00 -3.3 0 Calma 3 Sudeste 0 -- -- 94
2020-01-08 03:00:00 -3.3 0 Calma 4 Sudeste 0 -- -- 93
2020-01-08 02:00:00 -3.2 0 Calma 4 Sudeste 0 -- -- 93
2020-01-08 01:00:00 -2.8 0 Calma 3 Sudeste 0 -- -- 92
2020-01-08 00:00:00 -2.2 0 Calma 6 Oeste 0 -- -- 89
2020-01-07 23:00:00 -1.4 2 Sudeste 6 Sudeste 0 -- -- 87
2020-01-07 22:00:00 -0.1 3 Sudeste 13 Oeste 0 -- -- 81
2020-01-07 21:00:00 1.1 14 Oeste 14 Oeste 0 -- -- 75
2020-01-07 20:00:00 1.8 10 Sudoeste 13 Sudoeste 0 -- -- 74
2020-01-07 19:00:00 3.9 6 Oeste 19 Noroeste 0 -- -- 66
2020-01-07 18:00:00 5.7 13 Oeste 17 Oeste 0 -- -- 57
2020-01-07 17:00:00 9.8 7 Oeste 19 Oeste 0 -- -- 37
2020-01-07 16:00:00 10 13 Noroeste 21 Oeste 0 -- -- 47
2020-01-07 15:00:00 10.3 12 Oeste 18 Oeste 0 -- -- 45
2020-01-07 14:00:00 9.3 12 Oeste 16 Oeste 0 -- -- 44
2020-01-07 13:00:00 6.7 12 Noroeste 16 Oeste 0 -- -- 59
2020-01-07 12:00:00 6.3 2 Sudeste 6 Sudoeste 0 -- -- 68
2020-01-07 11:00:00 2.6 0 Calma 4 Este 0 -- -- 74
2020-01-07 10:00:00 -0.3 0 Calma 3 Sudeste 0 -- -- 78
2020-01-07 09:00:00 -5.3 0 Calma 2 Este 0 -- -- 95
2020-01-07 08:00:00 -5.4 0 Calma 2 Sudeste 0 -- -- 95
2020-01-07 07:00:00 -6.1 0 Calma 4 Sudeste 0 -- -- 95
2020-01-07 06:00:00 -5.7 3 Sudeste 4 Sudeste 0 -- -- 94
2020-01-07 05:00:00 -4.5 0 Calma 3 Sudeste 0 -- -- 94
2020-01-07 04:00:00 -4.5 2 Sudeste 3 Sudeste 0 -- -- 92
2020-01-07 03:00:00 -3.7 0 Calma 4 Sudeste 0 -- -- 91
2020-01-07 02:00:00 -3.6 0 Calma 3 Sudeste 0 -- -- 90
2020-01-07 01:00:00 -2.9 0 Calma 3 Sudoeste 0 -- -- 90
2020-01-07 00:00:00 -2.7 3 Sur 5 Sudoeste 0 -- -- 89
2020-01-06 23:00:00 -2.3 0 Calma 6 Este 0 -- -- 91
2020-01-06 22:00:00 -0.5 4 Sudoeste 12 Sudoeste 0 -- -- 88
2020-01-06 21:00:00 2.1 8 Sudoeste 10 Sudoeste 0 -- -- 82
2020-01-06 20:00:00 3 3 Sudoeste 10 Oeste 0 -- -- 73
2020-01-06 19:00:00 5.5 3 Sudoeste 9 Sur 0 -- -- 63
2020-01-06 18:00:00 7.4 0 Calma 13 Oeste 0 -- -- 56
2020-01-06 17:00:00 10.9 11 Oeste 18 Oeste 0 -- -- 50
2020-01-06 16:00:00 12.2 14 Oeste 22 Oeste 0 -- -- 40
2020-01-06 15:00:00 12.2 6 Noroeste 14 Oeste 1.2 -- -- 43
2020-01-06 14:00:00 9 10 Sudoeste 15 Sudoeste 0 -- -- 65
2020-01-06 13:00:00 6.8 7 Sudoeste 10 Sudoeste 0 -- -- 93
2020-01-06 12:00:00 3 3 Sudeste 6 Sudeste 0 -- -- 91
2020-01-06 11:00:00 0.5 2 Este 4 Sudeste 0.2 -- -- 91
2020-01-06 10:00:00 -1.2 0 Calma -- -- 0 -- -- 95